createdAt,value
2017-12-31T00:00:16.467Z,60.14
2017-12-31T00:00:42.058Z,60.34
2017-12-31T00:01:07.600Z,60.24
2017-12-31T00:01:33.153Z,59.95
2017-12-31T00:01:58.783Z,59.95
2017-12-31T00:02:24.353Z,60.14
2017-12-31T00:02:50.729Z,60.14
2017-12-31T00:03:15.459Z,59.95
2017-12-31T00:03:41.001Z,60.05
2017-12-31T00:04:06.556Z,60.24
2017-12-31T00:04:32.241Z,60.14
2017-12-31T00:04:57.830Z,60.24
2017-12-31T00:05:23.406Z,59.95
2017-12-31T00:05:48.950Z,60.05
2017-12-31T00:06:14.531Z,60.14
2017-12-31T00:06:40.098Z,60.53
2017-12-31T00:07:05.718Z,60.34
2017-12-31T00:07:31.270Z,60.14
2017-12-31T00:07:56.820Z,60.14
2017-12-31T00:08:22.414Z,60.14
2017-12-31T00:08:48.052Z,59.95
2017-12-31T00:09:13.624Z,60.24
2017-12-31T00:09:39.165Z,60.72
2017-12-31T00:10:04.741Z,60.34
2017-12-31T00:10:30.286Z,60.34
2017-12-31T00:10:55.904Z,60.34
2017-12-31T00:11:21.486Z,60.43
2017-12-31T00:11:47.026Z,60.24
2017-12-31T00:12:12.597Z,60.53
2017-12-31T00:12:38.177Z,60.14
2017-12-31T00:13:03.766Z,60.34
2017-12-31T00:13:29.332Z,60.72
2017-12-31T00:13:54.938Z,60.53
2017-12-31T00:14:20.488Z,60.72
2017-12-31T00:14:46.058Z,60.34
2017-12-31T00:15:11.743Z,60.43
2017-12-31T00:15:37.329Z,60.53
2017-12-31T00:16:02.895Z,60.72
2017-12-31T00:16:28.464Z,60.34
2017-12-31T00:16:54.033Z,60.34
2017-12-31T00:17:19.681Z,60.63
2017-12-31T00:17:45.251Z,60.82
2017-12-31T00:18:10.845Z,60.72
2017-12-31T00:18:36.391Z,60.63
2017-12-31T00:19:02.020Z,60.82
2017-12-31T00:19:27.585Z,60.43
2017-12-31T00:19:53.145Z,60.72
2017-12-31T00:20:18.719Z,60.53
2017-12-31T00:20:44.274Z,60.24
2017-12-31T00:21:09.896Z,60.43
2017-12-31T00:21:35.463Z,60.72
2017-12-31T00:22:00.984Z,60.53
2017-12-31T00:22:26.534Z,60.34
2017-12-31T00:22:52.131Z,60.34
2017-12-31T00:23:17.700Z,60.63
2017-12-31T00:23:43.819Z,60.82
2017-12-31T00:24:09.496Z,60.72
2017-12-31T00:24:35.065Z,60.43
2017-12-31T00:25:00.637Z,60.72
2017-12-31T00:25:26.296Z,60.53
2017-12-31T00:25:51.848Z,60.91
2017-12-31T00:26:17.406Z,60.63
2017-12-31T00:26:42.976Z,60.63
2017-12-31T00:27:08.677Z,60.43
2017-12-31T00:27:34.298Z,60.53
2017-12-31T00:27:59.864Z,60.82
2017-12-31T00:28:25.450Z,60.72
2017-12-31T00:28:51.056Z,60.91
2017-12-31T00:29:16.603Z,60.72
2017-12-31T00:29:42.196Z,60.82
2017-12-31T00:30:07.750Z,60.43
2017-12-31T00:30:33.303Z,60.72
2017-12-31T00:30:58.864Z,60.43
2017-12-31T00:31:24.449Z,60.53
2017-12-31T00:31:49.998Z,60.53
2017-12-31T00:32:15.580Z,60.63
2017-12-31T00:32:41.141Z,60.53
2017-12-31T00:33:06.676Z,60.72
2017-12-31T00:33:32.317Z,60.72
2017-12-31T00:33:57.900Z,60.72
2017-12-31T00:34:23.471Z,60.63
2017-12-31T00:34:49.101Z,60.72
2017-12-31T00:35:14.681Z,60.72
2017-12-31T00:35:40.243Z,60.43
2017-12-31T00:36:05.805Z,60.53
2017-12-31T00:36:31.400Z,60.72
2017-12-31T00:36:56.929Z,60.53
2017-12-31T00:37:22.512Z,60.72
2017-12-31T00:37:48.061Z,60.91
2017-12-31T00:38:13.663Z,60.43
2017-12-31T00:38:39.213Z,60.72
2017-12-31T00:39:04.793Z,60.53
2017-12-31T00:39:30.377Z,60.82
2017-12-31T00:39:55.978Z,60.53
2017-12-31T00:40:21.562Z,60.72
2017-12-31T00:40:47.140Z,60.72
2017-12-31T00:41:12.711Z,60.72
2017-12-31T00:41:38.324Z,60.63
2017-12-31T00:42:03.897Z,60.63
2017-12-31T00:42:29.557Z,60.72
2017-12-31T00:42:55.058Z,60.63
2017-12-31T00:43:20.646Z,60.53
2017-12-31T00:43:46.212Z,60.63
2017-12-31T00:44:11.801Z,60.53
2017-12-31T00:44:37.398Z,60.72
2017-12-31T00:45:02.939Z,60.72
2017-12-31T00:45:28.544Z,60.63
2017-12-31T00:45:54.150Z,60.63
2017-12-31T00:46:19.667Z,60.43
2017-12-31T00:46:45.257Z,60.53
2017-12-31T00:47:10.832Z,60.43
2017-12-31T00:47:36.382Z,60.53
2017-12-31T00:48:01.958Z,60.53
2017-12-31T00:48:27.537Z,60.43
2017-12-31T00:48:53.756Z,60.43
2017-12-31T00:49:18.654Z,60.63
2017-12-31T00:49:44.241Z,60.43
2017-12-31T00:50:09.789Z,60.53
2017-12-31T00:50:35.431Z,60.43
2017-12-31T00:51:00.985Z,60.43
2017-12-31T00:51:26.549Z,60.43
2017-12-31T00:51:52.122Z,60.43
2017-12-31T00:52:17.694Z,60.43
2017-12-31T00:52:43.252Z,60.53
2017-12-31T00:53:08.922Z,60.63
2017-12-31T00:53:34.541Z,60.43
2017-12-31T00:54:00.105Z,60.34
2017-12-31T00:54:25.665Z,60.63
2017-12-31T00:54:51.239Z,60.53
2017-12-31T00:55:16.804Z,60.34
2017-12-31T00:55:42.357Z,60.34
2017-12-31T00:56:07.933Z,60.63
2017-12-31T00:56:33.499Z,60.91
2017-12-31T00:56:59.050Z,60.72
2017-12-31T00:57:24.711Z,60.34
2017-12-31T00:57:50.273Z,60.24
2017-12-31T00:58:15.819Z,60.53
2017-12-31T00:58:41.363Z,60.63
2017-12-31T00:59:06.945Z,60.43
2017-12-31T00:59:32.517Z,60.43
2017-12-31T00:59:58.132Z,60.43
2017-12-31T01:00:23.661Z,60.43
2017-12-31T01:00:49.263Z,60.43
2017-12-31T01:01:14.877Z,60.43
2017-12-31T01:01:40.409Z,60.43
2017-12-31T01:02:05.976Z,60.53
2017-12-31T01:02:31.540Z,60.63
2017-12-31T01:02:57.087Z,60.43
2017-12-31T01:03:22.663Z,60.43
2017-12-31T01:03:48.333Z,60.82
2017-12-31T01:04:13.906Z,60.43
2017-12-31T01:04:39.526Z,60.31
2017-12-31T01:05:05.111Z,60.63
2017-12-31T01:05:30.674Z,60.63
2017-12-31T01:05:56.228Z,60.6
2017-12-31T01:06:21.778Z,60.31
2017-12-31T01:06:47.356Z,60.63
2017-12-31T01:07:12.904Z,60.34
2017-12-31T01:07:38.594Z,60.78
2017-12-31T01:08:04.182Z,60.53
2017-12-31T01:08:29.733Z,60.63
2017-12-31T01:08:55.307Z,60.78
2017-12-31T01:09:20.904Z,60.72
2017-12-31T01:09:46.476Z,61.2
2017-12-31T01:10:12.035Z,61.11
2017-12-31T01:10:37.635Z,61.2
2017-12-31T01:11:03.211Z,61.3
2017-12-31T01:11:28.761Z,60.63
2017-12-31T01:11:54.356Z,61.11
2017-12-31T01:12:19.910Z,60.82
2017-12-31T01:12:45.483Z,60.69
2017-12-31T01:13:11.019Z,60.53
2017-12-31T01:13:36.597Z,60.63
2017-12-31T01:14:02.139Z,61.17
2017-12-31T01:14:27.817Z,60.72
2017-12-31T01:14:53.449Z,60.5
2017-12-31T01:15:19.012Z,60.5
2017-12-31T01:15:44.598Z,60.43
2017-12-31T01:16:10.148Z,60.43
2017-12-31T01:16:35.702Z,60.4
2017-12-31T01:17:01.258Z,60.82
2017-12-31T01:17:26.856Z,60.43
2017-12-31T01:17:52.411Z,60.72
2017-12-31T01:18:17.990Z,61.3
2017-12-31T01:18:43.539Z,61.11
2017-12-31T01:19:09.133Z,61.01
2017-12-31T01:19:34.686Z,60.82
2017-12-31T01:20:00.249Z,60.69
2017-12-31T01:20:25.837Z,61.2
2017-12-31T01:20:51.482Z,61.01
2017-12-31T01:21:17.087Z,61.3
2017-12-31T01:21:42.653Z,61.17
2017-12-31T01:22:08.211Z,61.17
2017-12-31T01:22:33.776Z,61.3
2017-12-31T01:22:59.315Z,61.3
2017-12-31T01:23:24.878Z,61.36
2017-12-31T01:23:50.447Z,61.3
2017-12-31T01:24:16.003Z,60.69
2017-12-31T01:24:41.595Z,60.6
2017-12-31T01:25:07.208Z,61.3
2017-12-31T01:25:32.782Z,61.2
2017-12-31T01:25:58.348Z,61.2
2017-12-31T01:26:23.933Z,61.2
2017-12-31T01:26:49.494Z,61.01
2017-12-31T01:27:15.053Z,61.01
2017-12-31T01:27:40.672Z,60.98
2017-12-31T01:28:06.224Z,61.2
2017-12-31T01:28:31.825Z,61.01
2017-12-31T01:28:57.439Z,61.01
2017-12-31T01:29:22.994Z,60.98
2017-12-31T01:29:48.628Z,60.91
2017-12-31T01:30:14.273Z,61.2
2017-12-31T01:30:39.834Z,61.17
2017-12-31T01:31:05.394Z,60.72
2017-12-31T01:31:30.945Z,61.2
2017-12-31T01:31:56.514Z,60.98
2017-12-31T01:32:22.097Z,61.01
2017-12-31T01:32:47.675Z,60.91
2017-12-31T01:33:13.235Z,61.11
2017-12-31T01:33:38.827Z,60.91
2017-12-31T01:34:04.454Z,60.6
2017-12-31T01:34:30.009Z,61.11
2017-12-31T01:34:55.579Z,61.01
2017-12-31T01:35:21.138Z,60.78
2017-12-31T01:35:46.702Z,60.69
2017-12-31T01:36:12.296Z,60.78
2017-12-31T01:36:37.850Z,60.82
2017-12-31T01:37:03.467Z,60.91
2017-12-31T01:37:29.027Z,60.72
2017-12-31T01:37:54.581Z,61.08
2017-12-31T01:38:20.140Z,60.6
2017-12-31T01:38:45.693Z,61.2
2017-12-31T01:39:11.268Z,61.01
2017-12-31T01:39:36.823Z,60.88
2017-12-31T01:40:02.415Z,60.69
2017-12-31T01:40:27.994Z,60.78
2017-12-31T01:40:53.550Z,61.08
2017-12-31T01:41:19.115Z,60.69
2017-12-31T01:41:44.663Z,60.82
2017-12-31T01:42:10.225Z,61.17
2017-12-31T01:42:35.784Z,60.88
2017-12-31T01:43:01.341Z,60.88
2017-12-31T01:43:26.908Z,61.46
2017-12-31T01:43:52.515Z,60.98
2017-12-31T01:44:18.118Z,61.3
2017-12-31T01:44:43.869Z,61.2
2017-12-31T01:45:09.427Z,61.17
2017-12-31T01:45:34.985Z,60.98
2017-12-31T01:46:00.566Z,61.27
2017-12-31T01:46:26.196Z,61.17
2017-12-31T01:46:51.822Z,60.91
2017-12-31T01:47:17.413Z,61.01
2017-12-31T01:47:42.973Z,60.88
2017-12-31T01:48:08.562Z,60.69
2017-12-31T01:48:34.142Z,60.88
2017-12-31T01:48:59.782Z,60.98
2017-12-31T01:49:25.397Z,60.88
2017-12-31T01:49:50.926Z,60.98
2017-12-31T01:50:16.488Z,60.91
2017-12-31T01:50:42.033Z,60.88
2017-12-31T01:51:07.594Z,60.88
2017-12-31T01:51:33.149Z,61.08
2017-12-31T01:51:58.707Z,60.69
2017-12-31T01:52:24.265Z,60.69
2017-12-31T01:52:49.830Z,61.08
2017-12-31T01:53:15.405Z,60.98
2017-12-31T01:53:40.982Z,60.6
2017-12-31T01:54:06.525Z,60.88
2017-12-31T01:54:32.085Z,61.49
2017-12-31T01:54:57.675Z,61.17
2017-12-31T01:55:23.250Z,60.98
2017-12-31T01:55:48.851Z,61.17
2017-12-31T01:56:14.453Z,61.17
2017-12-31T01:56:40.010Z,61.17
2017-12-31T01:57:05.581Z,60.98
2017-12-31T01:57:31.161Z,61.27
2017-12-31T01:57:56.725Z,61.27
2017-12-31T01:58:22.302Z,61.17
2017-12-31T01:58:47.915Z,61.36
2017-12-31T01:59:13.475Z,60.78
2017-12-31T01:59:39.031Z,60.78
2017-12-31T02:00:04.580Z,61.08
2017-12-31T02:00:30.153Z,60.98
2017-12-31T02:00:55.700Z,61.17
2017-12-31T02:01:21.346Z,61.17
2017-12-31T02:01:46.922Z,61.27
2017-12-31T02:02:12.484Z,61.27
2017-12-31T02:02:38.053Z,61.17
2017-12-31T02:03:03.722Z,60.88
2017-12-31T02:03:29.292Z,61.17
2017-12-31T02:03:54.860Z,61.27
2017-12-31T02:04:20.442Z,61.27
2017-12-31T02:04:46.043Z,61.27
2017-12-31T02:05:11.624Z,61.46
2017-12-31T02:05:37.195Z,60.88
2017-12-31T02:06:02.755Z,61.08
2017-12-31T02:06:28.303Z,61.08
2017-12-31T02:06:53.902Z,61.27
2017-12-31T02:07:19.448Z,61.17
2017-12-31T02:07:44.997Z,60.98
2017-12-31T02:08:10.653Z,61.27
2017-12-31T02:08:36.226Z,60.88
2017-12-31T02:09:01.837Z,61.08
2017-12-31T02:09:27.398Z,60.98
2017-12-31T02:09:52.991Z,61.08
2017-12-31T02:10:18.570Z,60.88
2017-12-31T02:10:44.159Z,60.98
2017-12-31T02:11:09.739Z,61.27
2017-12-31T02:11:35.322Z,61.08
2017-12-31T02:12:00.877Z,61.46
2017-12-31T02:12:26.441Z,60.88
2017-12-31T02:12:52.002Z,60.78
2017-12-31T02:13:17.547Z,61.17
2017-12-31T02:13:43.132Z,61.17
2017-12-31T02:14:08.688Z,61.17
2017-12-31T02:14:34.249Z,60.88
2017-12-31T02:14:59.811Z,60.98
2017-12-31T02:15:25.349Z,60.88
2017-12-31T02:15:50.925Z,61.08
2017-12-31T02:16:16.492Z,60.88
2017-12-31T02:16:42.073Z,61.08
2017-12-31T02:17:07.685Z,60.98
2017-12-31T02:17:33.412Z,60.78
2017-12-31T02:17:58.969Z,61.27
2017-12-31T02:18:24.552Z,60.88
2017-12-31T02:18:50.115Z,60.88
2017-12-31T02:19:15.686Z,61.08
2017-12-31T02:19:41.231Z,60.88
2017-12-31T02:20:06.803Z,61.08
2017-12-31T02:20:32.364Z,60.88
2017-12-31T02:20:57.937Z,60.88
2017-12-31T02:21:23.587Z,60.98
2017-12-31T02:21:49.140Z,60.88
2017-12-31T02:22:14.703Z,61.08
2017-12-31T02:22:40.328Z,60.88
2017-12-31T02:23:05.858Z,61.27
2017-12-31T02:23:31.421Z,60.88
2017-12-31T02:23:57.013Z,61.17
2017-12-31T02:24:22.565Z,61.36
2017-12-31T02:24:48.146Z,61.36
2017-12-31T02:25:13.734Z,61.08
2017-12-31T02:25:39.321Z,61.08
2017-12-31T02:26:04.902Z,61.08
2017-12-31T02:26:30.502Z,61.08
2017-12-31T02:26:56.069Z,61.08
2017-12-31T02:27:21.634Z,60.98
2017-12-31T02:27:47.203Z,61.55
2017-12-31T02:28:12.737Z,61.55
2017-12-31T02:28:38.322Z,61.36
2017-12-31T02:29:03.964Z,61.36
2017-12-31T02:29:29.544Z,61.08
2017-12-31T02:29:55.090Z,60.88
2017-12-31T02:30:20.651Z,61.36
2017-12-31T02:30:46.285Z,60.98
2017-12-31T02:31:11.848Z,61.36
2017-12-31T02:31:37.443Z,61.46
2017-12-31T02:32:03.094Z,61.36
2017-12-31T02:32:28.659Z,61.55
2017-12-31T02:32:54.193Z,61.36
2017-12-31T02:33:19.751Z,61.36
2017-12-31T02:33:45.335Z,61.46
2017-12-31T02:34:10.923Z,61.46
2017-12-31T02:34:36.516Z,61.36
2017-12-31T02:35:02.076Z,61.55
2017-12-31T02:35:27.672Z,61.55
2017-12-31T02:35:53.242Z,61.46
2017-12-31T02:36:18.803Z,61.94
2017-12-31T02:36:44.365Z,61.65
2017-12-31T02:37:09.950Z,61.36
2017-12-31T02:37:35.506Z,61.27
2017-12-31T02:38:01.070Z,61.65
2017-12-31T02:38:26.629Z,61.55
2017-12-31T02:38:52.262Z,61.46
2017-12-31T02:39:17.835Z,61.46
2017-12-31T02:39:43.396Z,61.55
2017-12-31T02:40:08.969Z,61.55
2017-12-31T02:40:34.519Z,61.46
2017-12-31T02:41:00.077Z,61.55
2017-12-31T02:41:25.669Z,61.55
2017-12-31T02:41:51.297Z,61.55
2017-12-31T02:42:16.863Z,61.36
2017-12-31T02:42:42.440Z,61.46
2017-12-31T02:43:07.976Z,61.75
2017-12-31T02:43:33.558Z,61.55
2017-12-31T02:43:59.128Z,61.46
2017-12-31T02:44:24.697Z,61.84
2017-12-31T02:44:50.303Z,61.65
2017-12-31T02:45:15.943Z,61.36
2017-12-31T02:45:41.504Z,61.94
2017-12-31T02:46:07.082Z,61.65
2017-12-31T02:46:32.644Z,61.65
2017-12-31T02:46:58.241Z,61.75
2017-12-31T02:47:23.787Z,61.46
2017-12-31T02:47:49.356Z,61.65
2017-12-31T02:48:14.961Z,61.55
2017-12-31T02:48:40.462Z,61.65
2017-12-31T02:49:06.018Z,61.46
2017-12-31T02:49:31.538Z,61.75
2017-12-31T02:49:57.105Z,61.46
2017-12-31T02:50:22.683Z,61.27
2017-12-31T02:50:48.248Z,61.75
2017-12-31T02:51:13.792Z,61.65
2017-12-31T02:51:39.353Z,61.84
2017-12-31T02:52:04.909Z,61.84
2017-12-31T02:52:30.504Z,61.94
2017-12-31T02:52:56.058Z,61.65
2017-12-31T02:53:21.604Z,61.84
2017-12-31T02:53:47.280Z,61.75
2017-12-31T02:54:12.834Z,61.65
2017-12-31T02:54:38.403Z,61.94
2017-12-31T02:55:04.066Z,61.55
2017-12-31T02:55:29.728Z,61.84
2017-12-31T02:55:55.350Z,61.84
2017-12-31T02:56:20.891Z,61.75
2017-12-31T02:56:46.562Z,61.65
2017-12-31T02:57:12.108Z,61.65
2017-12-31T02:57:37.656Z,61.65
2017-12-31T02:58:03.194Z,61.46
2017-12-31T02:58:28.752Z,61.65
2017-12-31T02:58:54.339Z,61.65
2017-12-31T02:59:20.000Z,61.55
2017-12-31T02:59:45.546Z,61.65
2017-12-31T03:00:11.116Z,61.65
2017-12-31T03:00:36.672Z,61.65
2017-12-31T03:01:02.226Z,61.65
2017-12-31T03:01:27.792Z,61.94
2017-12-31T03:01:53.320Z,61.84
2017-12-31T03:02:18.893Z,61.55
2017-12-31T03:02:44.486Z,61.84
2017-12-31T03:03:10.122Z,61.84
2017-12-31T03:03:35.755Z,61.65
2017-12-31T03:04:01.316Z,61.65
2017-12-31T03:04:26.942Z,61.75
2017-12-31T03:04:52.549Z,61.65
2017-12-31T03:05:18.143Z,61.94
2017-12-31T03:05:43.730Z,61.65
2017-12-31T03:06:09.282Z,61.65
2017-12-31T03:06:34.856Z,61.65
2017-12-31T03:07:00.412Z,61.84
2017-12-31T03:07:26.010Z,61.65
2017-12-31T03:07:51.557Z,61.55
2017-12-31T03:08:17.139Z,61.46
2017-12-31T03:08:42.743Z,61.46
2017-12-31T03:09:08.296Z,61.46
2017-12-31T03:09:33.864Z,61.46
2017-12-31T03:09:59.511Z,61.84
2017-12-31T03:10:25.083Z,61.65
2017-12-31T03:10:50.651Z,61.65
2017-12-31T03:11:16.229Z,61.84
2017-12-31T03:11:41.776Z,61.84
2017-12-31T03:12:07.343Z,61.84
2017-12-31T03:12:32.898Z,61.65
2017-12-31T03:12:58.444Z,61.94
2017-12-31T03:13:24.076Z,61.84
2017-12-31T03:13:49.667Z,61.65
2017-12-31T03:14:15.245Z,61.65
2017-12-31T03:14:40.803Z,61.65
2017-12-31T03:15:06.405Z,61.94
2017-12-31T03:15:31.985Z,61.46
2017-12-31T03:15:57.534Z,61.55
2017-12-31T03:16:23.102Z,61.75
2017-12-31T03:16:48.651Z,61.65
2017-12-31T03:17:14.206Z,61.84
2017-12-31T03:17:39.793Z,61.94
2017-12-31T03:18:05.478Z,61.65
2017-12-31T03:18:31.028Z,61.65
2017-12-31T03:18:56.567Z,61.65
2017-12-31T03:19:22.129Z,61.94
2017-12-31T03:19:47.714Z,61.94
2017-12-31T03:20:13.281Z,61.65
2017-12-31T03:20:38.900Z,61.65
2017-12-31T03:21:04.470Z,61.65
2017-12-31T03:21:30.085Z,61.36
2017-12-31T03:21:55.626Z,61.84
2017-12-31T03:22:21.199Z,61.65
2017-12-31T03:22:46.760Z,61.55
2017-12-31T03:23:12.329Z,61.65
2017-12-31T03:23:37.884Z,61.65
2017-12-31T03:24:03.463Z,61.55
2017-12-31T03:24:29.130Z,61.65
2017-12-31T03:24:54.703Z,61.65
2017-12-31T03:25:20.269Z,61.65
2017-12-31T03:25:45.823Z,61.55
2017-12-31T03:26:11.392Z,61.65
2017-12-31T03:26:36.990Z,61.65
2017-12-31T03:27:02.629Z,61.75
2017-12-31T03:27:28.192Z,61.46
2017-12-31T03:27:53.770Z,61.65
2017-12-31T03:28:19.331Z,61.46
2017-12-31T03:28:44.891Z,61.46
2017-12-31T03:29:10.456Z,61.46
2017-12-31T03:29:36.088Z,61.55
2017-12-31T03:30:01.687Z,61.55
2017-12-31T03:30:27.262Z,61.46
2017-12-31T03:30:52.846Z,61.65
2017-12-31T03:31:18.398Z,61.46
2017-12-31T03:31:43.963Z,61.94
2017-12-31T03:32:09.549Z,61.65
2017-12-31T03:33:13.641Z,61.65
2017-12-31T03:33:39.171Z,61.65
2017-12-31T03:34:04.737Z,61.65
2017-12-31T03:34:30.338Z,61.65
2017-12-31T03:34:55.888Z,61.65
2017-12-31T03:35:21.498Z,61.46
2017-12-31T03:35:47.062Z,61.65
2017-12-31T03:36:12.631Z,61.75
2017-12-31T03:36:38.200Z,61.65
2017-12-31T03:37:03.754Z,61.65
2017-12-31T03:37:29.352Z,61.65
2017-12-31T03:37:54.971Z,61.36
2017-12-31T03:38:20.567Z,61.65
2017-12-31T03:38:46.119Z,61.65
2017-12-31T03:39:11.672Z,61.84
2017-12-31T03:39:37.221Z,61.65
2017-12-31T03:40:02.793Z,61.46
2017-12-31T03:40:28.342Z,61.55
2017-12-31T03:40:53.890Z,61.55
2017-12-31T03:41:19.482Z,61.65
2017-12-31T03:41:45.028Z,61.27
2017-12-31T03:42:10.590Z,61.65
2017-12-31T03:42:36.164Z,61.55
2017-12-31T03:43:01.854Z,61.75
2017-12-31T03:43:27.487Z,61.75
2017-12-31T03:43:53.026Z,61.27
2017-12-31T03:44:18.593Z,61.75
2017-12-31T03:44:44.260Z,61.55
2017-12-31T03:45:09.822Z,61.75
2017-12-31T03:45:35.379Z,61.55
2017-12-31T03:46:00.969Z,61.46
2017-12-31T03:46:26.532Z,61.55
2017-12-31T03:46:52.076Z,61.46
2017-12-31T03:47:17.830Z,61.36
2017-12-31T03:47:43.337Z,61.55
2017-12-31T03:48:08.902Z,61.55
2017-12-31T03:48:34.470Z,61.84
2017-12-31T03:49:00.040Z,61.55
2017-12-31T03:49:25.607Z,61.65
2017-12-31T03:49:51.200Z,61.65
2017-12-31T03:50:16.752Z,61.65
2017-12-31T03:50:42.313Z,61.46
2017-12-31T03:51:07.933Z,61.46
2017-12-31T03:51:33.513Z,61.65
2017-12-31T03:51:59.076Z,61.46
2017-12-31T03:52:24.660Z,61.55
2017-12-31T03:52:50.225Z,61.46
2017-12-31T03:53:15.804Z,61.46
2017-12-31T03:53:41.352Z,61.27
2017-12-31T03:54:34.823Z,61.55
2017-12-31T03:55:00.517Z,61.46
2017-12-31T03:55:26.063Z,61.27
2017-12-31T03:55:51.600Z,61.46
2017-12-31T03:56:17.150Z,61.65
2017-12-31T03:56:42.700Z,61.55
2017-12-31T03:57:08.245Z,61.46
2017-12-31T03:57:33.802Z,61.75
2017-12-31T03:57:59.349Z,61.65
2017-12-31T03:58:24.890Z,61.55
2017-12-31T03:58:50.461Z,61.55
2017-12-31T03:59:16.076Z,61.65
2017-12-31T03:59:41.647Z,61.55
2017-12-31T04:00:07.211Z,61.55
2017-12-31T04:00:32.769Z,61.46
2017-12-31T04:00:58.324Z,61.75
2017-12-31T04:01:23.896Z,61.55
2017-12-31T04:01:49.451Z,61.55
2017-12-31T04:02:15.042Z,61.55
2017-12-31T04:02:40.588Z,61.55
2017-12-31T04:03:06.146Z,61.65
2017-12-31T04:03:31.704Z,61.65
2017-12-31T04:03:57.264Z,61.65
2017-12-31T04:04:22.821Z,61.55
2017-12-31T04:04:48.446Z,61.75
2017-12-31T04:05:14.009Z,61.46
2017-12-31T04:05:39.587Z,61.65
2017-12-31T04:06:05.150Z,61.55
2017-12-31T04:06:30.718Z,61.46
2017-12-31T04:06:56.266Z,61.46
2017-12-31T04:07:21.832Z,61.36
2017-12-31T04:07:47.375Z,61.55
2017-12-31T04:08:12.944Z,61.46
2017-12-31T04:08:38.478Z,61.55
2017-12-31T04:09:04.030Z,61.75
2017-12-31T04:09:29.608Z,61.75
2017-12-31T04:09:55.163Z,61.46
2017-12-31T04:10:20.761Z,61.27
2017-12-31T04:10:46.383Z,61.46
2017-12-31T04:11:11.931Z,61.46
2017-12-31T04:11:37.554Z,61.36
2017-12-31T04:12:03.135Z,61.55
2017-12-31T04:12:28.693Z,61.65
2017-12-31T04:12:54.253Z,61.55
2017-12-31T04:13:19.792Z,61.65
2017-12-31T04:13:45.364Z,61.46
2017-12-31T04:14:10.951Z,61.36
2017-12-31T04:14:36.692Z,61.55
2017-12-31T04:15:02.263Z,61.36
2017-12-31T04:15:27.830Z,61.55
2017-12-31T04:15:53.385Z,61.36
2017-12-31T04:16:18.927Z,61.36
2017-12-31T04:16:44.480Z,61.55
2017-12-31T04:17:10.042Z,61.27
2017-12-31T04:17:35.717Z,61.65
2017-12-31T04:18:01.263Z,61.65
2017-12-31T04:18:26.823Z,61.65
2017-12-31T04:18:52.364Z,61.65
2017-12-31T04:19:17.918Z,61.55
2017-12-31T04:19:43.531Z,61.46
2017-12-31T04:20:09.075Z,61.84
2017-12-31T04:20:34.658Z,61.65
2017-12-31T04:21:00.222Z,61.65
2017-12-31T04:21:25.783Z,61.65
2017-12-31T04:21:51.345Z,61.75
2017-12-31T04:22:16.916Z,61.94
2017-12-31T04:22:42.473Z,61.46
2017-12-31T04:23:08.028Z,61.46
2017-12-31T04:23:33.648Z,61.55
2017-12-31T04:23:59.286Z,61.65
2017-12-31T04:24:24.834Z,61.65
2017-12-31T04:24:50.409Z,61.75
2017-12-31T04:25:15.949Z,61.36
2017-12-31T04:25:41.512Z,61.46
2017-12-31T04:26:07.096Z,61.55
2017-12-31T04:26:32.641Z,61.55
2017-12-31T04:26:58.205Z,61.55
2017-12-31T04:27:23.772Z,61.46
2017-12-31T04:27:49.336Z,61.46
2017-12-31T04:28:14.889Z,61.36
2017-12-31T04:28:40.438Z,61.46
2017-12-31T04:29:05.992Z,61.36
2017-12-31T04:29:31.561Z,61.36
2017-12-31T04:29:57.130Z,61.36
2017-12-31T04:30:22.702Z,61.46
2017-12-31T04:30:48.296Z,61.27
2017-12-31T04:31:13.851Z,61.36
2017-12-31T04:31:39.389Z,61.46
2017-12-31T04:32:04.957Z,61.46
2017-12-31T04:32:30.522Z,61.65
2017-12-31T04:32:56.092Z,61.27
2017-12-31T04:33:21.692Z,61.36
2017-12-31T04:33:47.271Z,61.75
2017-12-31T04:34:12.848Z,61.46
2017-12-31T04:34:38.413Z,61.46
2017-12-31T04:35:03.960Z,61.65
2017-12-31T04:35:29.525Z,61.75
2017-12-31T04:35:55.131Z,61.55
2017-12-31T04:36:20.737Z,61.36
2017-12-31T04:36:46.319Z,61.65
2017-12-31T04:37:11.886Z,61.55
2017-12-31T04:37:37.465Z,61.36
2017-12-31T04:38:03.063Z,61.36
2017-12-31T04:38:28.625Z,61.75
2017-12-31T04:38:54.182Z,61.36
2017-12-31T04:39:19.735Z,61.36
2017-12-31T04:39:45.283Z,61.4
2017-12-31T04:40:10.844Z,61.55
2017-12-31T04:40:36.402Z,61.78
2017-12-31T04:41:01.992Z,61.68
2017-12-31T04:41:27.561Z,61.4
2017-12-31T04:41:53.144Z,61.49
2017-12-31T04:42:18.736Z,61.49
2017-12-31T04:42:44.288Z,61.36
2017-12-31T04:43:09.863Z,61.68
2017-12-31T04:43:35.444Z,61.46
2017-12-31T04:44:00.999Z,61.49
2017-12-31T04:44:26.571Z,61.58
2017-12-31T04:44:52.118Z,61.87
2017-12-31T04:45:17.778Z,61.68
2017-12-31T04:45:43.342Z,61.68
2017-12-31T04:46:08.937Z,61.3
2017-12-31T04:46:34.609Z,61.3
2017-12-31T04:47:00.213Z,61.58
2017-12-31T04:47:25.790Z,61.68
2017-12-31T04:47:51.350Z,61.49
2017-12-31T04:48:16.901Z,61.78
2017-12-31T04:48:42.460Z,61.58
2017-12-31T04:49:08.015Z,61.68
2017-12-31T04:49:33.643Z,61.58
2017-12-31T04:49:59.262Z,61.58
2017-12-31T04:50:24.804Z,61.68
2017-12-31T04:50:50.359Z,61.68
2017-12-31T04:51:15.911Z,61.58
2017-12-31T04:51:41.483Z,61.49
2017-12-31T04:52:07.138Z,61.58
2017-12-31T04:52:32.696Z,61.58
2017-12-31T04:52:58.253Z,61.58
2017-12-31T04:53:23.879Z,61.87
2017-12-31T04:53:49.493Z,61.68
2017-12-31T04:54:15.031Z,61.68
2017-12-31T04:54:40.589Z,61.68
2017-12-31T04:55:06.205Z,61.68
2017-12-31T04:55:31.771Z,61.68
2017-12-31T04:55:57.339Z,61.68
2017-12-31T04:56:22.908Z,61.49
2017-12-31T04:56:48.501Z,61.68
2017-12-31T04:57:14.043Z,61.78
2017-12-31T04:57:39.635Z,61.68
2017-12-31T04:58:05.181Z,61.87
2017-12-31T04:58:30.783Z,61.78
2017-12-31T04:58:56.357Z,61.3
2017-12-31T04:59:21.914Z,61.97
2017-12-31T04:59:47.480Z,61.78
2017-12-31T05:00:13.139Z,61.68
2017-12-31T05:00:38.691Z,61.49
2017-12-31T05:01:04.252Z,61.87
2017-12-31T05:01:29.866Z,61.58
2017-12-31T05:01:55.443Z,61.68
2017-12-31T05:02:20.978Z,61.4
2017-12-31T05:02:46.604Z,61.3
2017-12-31T05:03:12.183Z,61.01
2017-12-31T05:03:37.734Z,60.82
2017-12-31T05:04:03.410Z,61.58
2017-12-31T05:04:28.908Z,61.4
2017-12-31T05:04:54.462Z,61.4
2017-12-31T05:05:20.026Z,61.01
2017-12-31T05:05:45.591Z,61.11
2017-12-31T05:06:11.227Z,61.4
2017-12-31T05:06:36.777Z,61.11
2017-12-31T05:07:02.346Z,61.11
2017-12-31T05:07:27.922Z,60.82
2017-12-31T05:07:53.574Z,61.01
2017-12-31T05:08:19.173Z,60.91
2017-12-31T05:08:44.733Z,61.01
2017-12-31T05:09:10.301Z,61.11
2017-12-31T05:09:35.992Z,61.01
2017-12-31T05:10:01.602Z,61.4
2017-12-31T05:10:27.226Z,61.2
2017-12-31T05:10:53.661Z,61.2
2017-12-31T05:11:19.222Z,60.91
2017-12-31T05:11:45.046Z,61.14
2017-12-31T05:12:10.605Z,61.11
2017-12-31T05:12:36.192Z,60.91
2017-12-31T05:13:01.853Z,61.01
2017-12-31T05:13:27.423Z,61.01
2017-12-31T05:13:53.014Z,61.04
2017-12-31T05:14:18.565Z,61.01
2017-12-31T05:14:44.140Z,61.01
2017-12-31T05:15:09.711Z,60.91
2017-12-31T05:15:35.263Z,61.11
2017-12-31T05:16:00.827Z,60.94
2017-12-31T05:16:26.569Z,61.14
2017-12-31T05:16:52.113Z,60.94
2017-12-31T05:17:17.668Z,61.01
2017-12-31T05:17:43.273Z,61.11
2017-12-31T05:18:08.841Z,61.01
2017-12-31T05:18:34.401Z,61.23
2017-12-31T05:18:59.963Z,61.14
2017-12-31T05:19:25.540Z,61.23
2017-12-31T05:19:51.124Z,61.3
2017-12-31T05:20:16.687Z,61.23
2017-12-31T05:20:42.262Z,61.33
2017-12-31T05:21:07.844Z,61.23
2017-12-31T05:21:33.501Z,60.91
2017-12-31T05:21:59.065Z,60.94
2017-12-31T05:22:24.655Z,60.91
2017-12-31T05:22:50.213Z,60.94
2017-12-31T05:23:15.778Z,61.04
2017-12-31T05:23:41.323Z,61.14
2017-12-31T05:24:06.954Z,61.3
2017-12-31T05:24:32.520Z,61.11
2017-12-31T05:24:58.090Z,61.01
2017-12-31T05:25:23.706Z,60.91
2017-12-31T05:25:49.367Z,61.2
2017-12-31T05:26:14.950Z,61.52
2017-12-31T05:26:40.504Z,61.14
2017-12-31T05:27:06.088Z,61.33
2017-12-31T05:27:31.622Z,60.91
2017-12-31T05:27:57.172Z,60.94
2017-12-31T05:28:22.840Z,61.3
2017-12-31T05:28:48.416Z,61.14
2017-12-31T05:29:13.997Z,61.3
2017-12-31T05:29:39.562Z,61.14
2017-12-31T05:30:05.125Z,61.33
2017-12-31T05:30:30.723Z,61.14
2017-12-31T05:30:56.271Z,61.14
2017-12-31T05:31:21.831Z,61.33